Time;durP1;ratioP1;P1;durP2;ratioP2;P2;SDS_P1;SDS_P2;PMS_P1;PMS_P2;Temp;Humidity;BMP_temperature;BMP_pressure;BME280_temperature;BME280_humidity;BME280_pressure;Samples;Min_cycle;Max_cycle;Signal;HPM_P1;HPM_P2
2022/06/05 00:00:28;;;;;;;5.53;3.87;;;;;;;16.90;100.00;95894.72;5031528;28;24518;-72
2022/06/05 00:03:08;;;;;;;7.03;4.55;;;;;;;16.87;100.00;95889.75;5031180;28;24455;-72
2022/06/05 00:05:44;;;;;;;5.45;4.05;;;;;;;16.87;100.00;95903.69;5031002;28;24440;-72
2022/06/05 00:08:18;;;;;;;6.90;5.03;;;;;;;16.81;100.00;95893.75;5030761;28;24999;-72
2022/06/05 00:10:52;;;;;;;7.15;5.03;;;;;;;16.83;100.00;95885.75;5031283;28;24447;-72
2022/06/05 00:13:26;;;;;;;8.48;5.32;;;;;;;16.78;100.00;95880.09;5031097;28;24439;-72
2022/06/05 00:15:53;;;;;;;8.52;5.20;;;;;;;16.82;100.00;95877.09;5030850;28;24999;-72
2022/06/05 00:18:21;;;;;;;5.68;4.88;;;;;;;16.87;100.00;95874.91;5026393;28;24957;-72
2022/06/05 00:20:47;;;;;;;5.82;5.03;;;;;;;16.91;100.00;95871.06;5024710;28;24829;-72
2022/06/05 00:23:14;;;;;;;5.88;4.68;;;;;;;16.92;100.00;95864.06;5014556;28;25024;-72
2022/06/05 00:25:47;;;;;;;5.40;4.10;;;;;;;16.94;100.00;95867.34;5027683;28;24463;-73
2022/06/05 00:28:23;;;;;;;4.75;4.35;;;;;;;16.88;100.00;95860.03;5024390;28;24435;-72
2022/06/05 00:31:02;;;;;;;5.93;4.78;;;;;;;16.78;100.00;95872.25;5030802;28;25007;-72
2022/06/05 00:33:37;;;;;;;6.37;4.47;;;;;;;16.75;100.00;95865.50;5022409;28;24449;-73
2022/06/05 00:36:24;;;;;;;5.43;4.35;;;;;;;16.70;100.00;95858.00;5030613;28;24443;-72
2022/06/05 00:38:59;;;;;;;6.10;4.50;;;;;;;16.72;100.00;95864.91;5030688;28;24436;-72
2022/06/05 00:41:45;;;;;;;5.68;4.90;;;;;;;16.56;100.00;95868.00;5021373;28;25200;-72
2022/06/05 00:44:16;;;;;;;5.22;4.30;;;;;;;16.64;100.00;95871.59;5025197;28;24463;-73
2022/06/05 00:46:44;;;;;;;5.25;4.28;;;;;;;16.59;100.00;95868.56;5030535;28;24858;-73
2022/06/05 00:49:12;;;;;;;5.32;4.82;;;;;;;16.63;100.00;95874.38;5030521;28;24439;-72
2022/06/05 00:51:39;;;;;;;8.03;5.70;;;;;;;16.45;100.00;95880.19;5029861;28;24435;-72
2022/06/05 00:54:07;;;;;;;6.93;5.30;;;;;;;16.53;100.00;95881.31;5030062;28;24552;-72
2022/06/05 00:56:33;;;;;;;10.38;5.53;;;;;;;16.53;100.00;95879.53;5030208;28;24535;-72
2022/06/05 00:59:00;;;;;;;5.00;4.47;;;;;;;16.30;100.00;95878.03;5030291;28;24435;-72
2022/06/05 01:01:27;;;;;;;7.57;4.65;;;;;;;16.06;100.00;95886.16;5029955;28;24444;-72
2022/06/05 01:04:00;;;;;;;5.40;4.68;;;;;;;15.96;100.00;95904.34;5029530;28;24876;-72
2022/06/05 01:06:28;;;;;;;6.20;5.07;;;;;;;15.89;100.00;95905.81;5025351;28;24440;-72
2022/06/05 01:08:55;;;;;;;8.45;5.25;;;;;;;15.81;100.00;95906.44;5021663;28;24438;-72
2022/06/05 01:11:29;;;;;;;7.28;4.95;;;;;;;15.73;100.00;95908.84;5030138;28;24436;-74
2022/06/05 01:14:08;;;;;;;5.50;4.78;;;;;;;15.76;100.00;95915.59;5030086;28;24431;-74
2022/06/05 01:16:44;;;;;;;7.23;5.50;;;;;;;15.83;100.00;95909.75;5029817;28;25014;-74
2022/06/05 01:19:20;;;;;;;10.20;5.07;;;;;;;15.83;100.00;95909.75;5024851;28;24436;-74
2022/06/05 01:22:42;;;;;;;6.85;5.57;;;;;;;15.93;100.00;95908.03;5019666;28;25004;-74
2022/06/05 01:25:24;;;;;;;6.45;4.80;;;;;;;16.28;100.00;95904.31;5028850;28;24506;-74
2022/06/05 01:27:59;;;;;;;11.23;4.93;;;;;;;16.44;100.00;95907.28;5029991;28;24436;-74
2022/06/05 01:30:26;;;;;;;6.18;4.63;;;;;;;16.47;100.00;95913.25;5029917;28;24486;-74
2022/06/05 01:33:00;;;;;;;5.88;4.65;;;;;;;16.39;100.00;95906.03;5029960;28;24431;-74
2022/06/05 01:35:30;;;;;;;5.50;4.77;;;;;;;16.18;100.00;95890.34;5029382;28;24522;-74
2022/06/05 01:38:03;;;;;;;5.22;4.50;;;;;;;16.43;100.00;95892.56;5029814;28;24442;-74
2022/06/05 01:40:35;;;;;;;5.68;5.10;;;;;;;16.29;100.00;95879.84;5030097;28;24851;-74
2022/06/05 01:43:08;;;;;;;5.80;4.85;;;;;;;16.45;100.00;95868.91;5029703;28;25092;-74
2022/06/05 01:45:42;;;;;;;4.85;4.43;;;;;;;16.50;100.00;95858.91;5026501;28;24884;-74
2022/06/05 01:48:15;;;;;;;7.00;4.95;;;;;;;16.39;100.00;95856.38;5029889;28;24497;-74
2022/06/05 01:50:46;;;;;;;6.65;5.07;;;;;;;16.28;100.00;95845.97;5030102;28;24436;-74
2022/06/05 01:53:18;;;;;;;5.65;5.00;;;;;;;16.34;100.00;95830.59;5029844;28;24531;-72
2022/06/05 01:55:51;;;;;;;7.93;5.40;;;;;;;16.12;100.00;95835.97;5029036;28;25074;-72
2022/06/05 01:58:24;;;;;;;18.58;5.75;;;;;;;16.13;100.00;95835.88;5029627;28;24494;-72
2022/06/05 02:00:55;;;;;;;9.03;5.63;;;;;;;16.05;100.00;95833.06;5029738;28;24984;-72
2022/06/05 02:03:25;;;;;;;6.38;5.18;;;;;;;16.12;100.00;95826.34;5029680;28;25088;-72
2022/06/05 02:05:56;;;;;;;6.10;4.60;;;;;;;16.62;100.00;95823.84;5029330;28;24432;-73
2022/06/05 02:08:28;;;;;;;5.90;5.40;;;;;;;16.61;100.00;95793.44;5029884;28;24440;-72
2022/06/05 02:11:00;;;;;;;6.93;5.68;;;;;;;16.45;100.00;95769.56;5029425;28;24440;-72
2022/06/05 02:13:28;;;;;;;7.15;6.05;;;;;;;16.57;100.00;95760.66;5029363;28;24997;-72
2022/06/05 02:15:55;;;;;;;8.93;6.15;;;;;;;16.51;100.00;95747.31;5029477;28;24436;-71
2022/06/05 02:18:23;;;;;;;9.70;6.50;;;;;;;16.55;100.00;95736.44;5029639;28;25021;-72
2022/06/05 02:20:50;;;;;;;7.35;5.88;;;;;;;16.51;100.00;95711.53;5029501;28;24442;-72
2022/06/05 02:23:21;;;;;;;6.72;5.97;;;;;;;16.55;100.00;95691.19;5029102;28;24785;-72
2022/06/05 02:25:48;;;;;;;6.00;5.40;;;;;;;16.73;100.00;95668.63;5029037;28;24444;-72
2022/06/05 02:28:16;;;;;;;9.88;6.50;;;;;;;16.86;100.00;95666.59;5028665;28;24443;-72
2022/06/05 02:31:07;;;;;;;6.80;6.10;;;;;;;16.79;100.00;95660.25;5030139;28;24531;-72
2022/06/05 02:33:41;;;;;;;7.35;5.93;;;;;;;16.69;100.00;95644.56;5033321;28;24429;-72
2022/06/05 02:36:19;;;;;;;6.47;5.47;;;;;;;16.79;100.00;95659.44;5033066;28;24442;-72
2022/06/05 02:39:00;;;;;;;7.43;6.32;;;;;;;17.02;100.00;95676.53;5033062;28;24498;-74
2022/06/05 02:41:33;;;;;;;8.93;6.50;;;;;;;17.00;100.00;95699.38;5032877;28;24455;-74
2022/06/05 02:44:29;;;;;;;7.55;6.75;;;;;;;17.09;100.00;95702.94;5032693;28;24548;-74
2022/06/05 02:47:11;;;;;;;7.80;6.55;;;;;;;17.19;100.00;95711.63;5032793;28;25022;-74
2022/06/05 02:49:43;;;;;;;7.85;6.50;;;;;;;17.26;100.00;95707.50;5031842;28;24436;-74
2022/06/05 02:52:10;;;;;;;8.75;7.15;;;;;;;17.44;100.00;95710.25;5032743;28;24443;-74
2022/06/05 02:54:41;;;;;;;10.25;7.15;;;;;;;17.48;100.00;95703.75;5032278;28;24432;-74
2022/06/05 02:57:08;;;;;;;17.90;7.60;;;;;;;17.37;100.00;95696.06;5032236;28;24578;-74
2022/06/05 02:59:34;;;;;;;7.93;6.50;;;;;;;17.10;100.00;95681.91;5016235;28;24996;-74
2022/06/05 03:04:47;;;;;;;8.40;6.68;;;;;;;17.11;100.00;95656.56;5032284;28;24467;-74
2022/06/05 03:07:13;;;;;;;7.68;6.85;;;;;;;17.16;100.00;95644.69;5031930;28;24432;-74
2022/06/05 03:09:39;;;;;;;7.28;6.57;;;;;;;17.12;100.00;95639.88;5032699;28;24439;-74
2022/06/05 03:12:06;;;;;;;10.57;7.60;;;;;;;17.15;100.00;95648.28;5032690;28;24439;-74
2022/06/05 03:14:32;;;;;;;7.63;6.93;;;;;;;17.21;100.00;95646.91;5031857;28;24444;-74
2022/06/05 03:16:59;;;;;;;9.65;6.97;;;;;;;17.15;100.00;95668.38;5031960;28;24435;-72
2022/06/05 03:19:27;;;;;;;9.75;6.40;;;;;;;16.82;100.00;95699.22;5031587;28;24547;-72
2022/06/05 03:21:53;;;;;;;7.30;6.60;;;;;;;16.69;100.00;95736.06;5031924;28;24432;-72
2022/06/05 03:24:20;;;;;;;10.47;6.60;;;;;;;16.65;100.00;95788.78;5031093;28;24494;-72
2022/06/05 03:26:46;;;;;;;5.90;5.40;;;;;;;16.65;100.00;95830.63;5031307;28;24443;-73
2022/06/05 03:29:13;;;;;;;6.05;5.28;;;;;;;16.59;100.00;95850.25;5031257;28;24436;-72
2022/06/05 03:31:39;;;;;;;8.90;5.80;;;;;;;16.50;100.00;95838.00;5031522;28;24985;-72
2022/06/05 03:34:06;;;;;;;9.95;6.22;;;;;;;16.45;100.00;95819.25;5031524;28;24431;-72
2022/06/05 03:36:34;;;;;;;8.00;6.47;;;;;;;16.40;100.00;95821.44;5031106;28;24494;-72
2022/06/05 03:39:00;;;;;;;8.00;6.80;;;;;;;16.35;100.00;95847.09;5031678;28;24538;-72
2022/06/05 03:41:27;;;;;;;11.13;7.68;;;;;;;16.21;100.00;95854.34;5031510;28;24439;-72
2022/06/05 03:43:53;;;;;;;13.10;7.72;;;;;;;16.26;100.00;95834.84;5031487;28;24453;-72
2022/06/05 03:46:20;;;;;;;7.70;6.93;;;;;;;16.40;100.00;95809.19;5030952;28;24443;-72
2022/06/05 03:48:46;;;;;;;8.20;6.07;;;;;;;16.63;100.00;95796.75;5031512;28;24431;-72
2022/06/05 03:51:14;;;;;;;13.00;6.97;;;;;;;16.73;100.00;95793.34;5031695;28;24486;-72
2022/06/05 03:53:43;;;;;;;8.63;7.78;;;;;;;16.49;100.00;95788.44;5031252;28;24463;-72
2022/06/05 03:56:10;;;;;;;15.90;6.20;;;;;;;16.37;100.00;95777.25;5031361;28;24566;-72
2022/06/05 03:58:37;;;;;;;7.78;6.55;;;;;;;16.35;100.00;95776.53;5031104;28;24810;-72
2022/06/05 04:01:04;;;;;;;7.35;6.65;;;;;;;16.48;100.00;95781.56;5031684;28;24431;-72
2022/06/05 04:03:30;;;;;;;6.18;5.57;;;;;;;16.45;100.00;95775.63;5030801;28;24444;-72
2022/06/05 04:05:57;;;;;;;7.28;6.55;;;;;;;16.41;100.00;95763.78;5030552;28;24858;-72
2022/06/05 04:08:23;;;;;;;9.23;7.10;;;;;;;16.40;100.00;95743.84;5030709;28;24462;-72
2022/06/05 04:10:51;;;;;;;6.77;6.13;;;;;;;16.40;100.00;95746.44;5030546;28;24507;-72
2022/06/05 04:13:18;;;;;;;9.20;6.68;;;;;;;16.38;100.00;95748.34;5029535;28;24440;-72
2022/06/05 04:15:44;;;;;;;8.63;7.00;;;;;;;16.25;100.00;95752.19;5030228;28;24443;-72
2022/06/05 04:18:10;;;;;;;7.63;6.90;;;;;;;16.26;100.00;95764.28;5030907;28;24498;-72
2022/06/05 04:20:38;;;;;;;6.53;5.93;;;;;;;16.28;100.00;95778.03;5031008;28;24432;-72
2022/06/05 04:23:08;;;;;;;16.17;6.50;;;;;;;16.32;100.00;95792.50;5030989;28;24543;-72
2022/06/05 04:25:34;;;;;;;7.88;6.35;;;;;;;16.32;100.00;95811.63;5030382;28;24497;-72
2022/06/05 04:28:02;;;;;;;8.77;6.33;;;;;;;16.39;100.00;95818.00;5029548;28;24982;-72
2022/06/05 04:30:29;;;;;;;8.30;6.25;;;;;;;16.37;100.00;95829.53;5029124;28;25011;-72
2022/06/05 04:32:55;;;;;;;6.90;5.85;;;;;;;16.42;100.00;95829.94;5029263;28;24485;-72
2022/06/05 04:35:21;;;;;;;7.07;5.93;;;;;;;16.45;100.00;95837.53;5029270;28;24440;-72
2022/06/05 04:37:48;;;;;;;9.40;6.63;;;;;;;16.66;100.00;95842.72;5029830;28;24429;-73
2022/06/05 04:40:14;;;;;;;6.50;5.80;;;;;;;16.68;100.00;95859.91;5029821;28;24456;-72
2022/06/05 04:42:41;;;;;;;6.57;5.97;;;;;;;16.58;100.00;95869.53;5029686;28;24985;-72
2022/06/05 04:45:09;;;;;;;8.80;6.88;;;;;;;16.54;100.00;95881.22;5028248;28;24883;-72
2022/06/05 04:47:36;;;;;;;8.93;6.60;;;;;;;16.47;100.00;95898.38;5027913;28;24455;-72
2022/06/05 04:50:03;;;;;;;7.03;6.43;;;;;;;16.37;100.00;95910.56;5027194;28;24440;-72
2022/06/05 04:52:29;;;;;;;6.90;5.83;;;;;;;16.37;100.00;95923.63;5021902;28;24442;-72
2022/06/05 04:54:56;;;;;;;8.13;5.90;;;;;;;16.36;100.00;95927.19;5029238;28;24435;-72
2022/06/05 04:57:22;;;;;;;8.18;6.80;;;;;;;16.26;100.00;95902.78;5028666;28;24447;-71
2022/06/05 04:59:49;;;;;;;8.38;6.00;;;;;;;16.44;100.00;95851.56;5020603;28;24481;-73
2022/06/05 05:02:18;;;;;;;8.57;6.68;;;;;;;16.45;100.00;95837.53;5025617;28;24456;-73
2022/06/05 05:04:47;;;;;;;9.30;7.90;;;;;;;16.19;100.00;95843.19;5026920;28;25174;-72
2022/06/05 05:07:13;;;;;;;10.32;7.25;;;;;;;16.05;100.00;95840.88;5020371;28;24813;-73
2022/06/05 05:09:40;;;;;;;9.10;6.28;;;;;;;15.95;100.00;95850.47;5023805;28;24439;-72
2022/06/05 05:12:09;;;;;;;6.63;6.03;;;;;;;15.99;100.00;95851.88;5028964;28;21309;-72
2022/06/05 05:14:36;;;;;;;7.63;6.83;;;;;;;16.05;100.00;95851.34;5029404;28;24556;-72
2022/06/05 05:17:03;;;;;;;7.88;6.63;;;;;;;16.11;100.00;95843.00;5030493;28;24439;-71
2022/06/05 05:19:31;;;;;;;7.25;6.55;;;;;;;16.19;100.00;95831.91;5030072;28;24502;-72
2022/06/05 05:21:57;;;;;;;8.32;7.25;;;;;;;16.90;100.00;95811.03;5029584;28;24446;-72
2022/06/05 05:24:24;;;;;;;9.57;8.68;;;;;;;17.13;100.00;95791.53;5028882;28;24465;-72
2022/06/05 05:26:50;;;;;;;9.68;8.52;;;;;;;17.00;100.00;95785.72;5029564;28;25026;-72
2022/06/05 05:29:17;;;;;;;10.32;8.60;;;;;;;17.00;100.00;95787.50;5029895;28;24435;-72
2022/06/05 05:31:44;;;;;;;9.75;8.80;;;;;;;16.92;100.00;95789.00;5029513;28;24447;-72
2022/06/05 05:34:11;;;;;;;9.27;8.32;;;;;;;16.84;100.00;95788.84;5029494;28;24435;-72
2022/06/05 05:36:39;;;;;;;12.60;9.18;;;;;;;16.96;100.00;95779.09;5029178;28;24449;-72
2022/06/05 05:42:08;;;;;;;8.93;8.07;;;;;;;16.84;100.00;95811.56;5027854;28;25059;-72
2022/06/05 05:44:37;;;;;;;10.20;9.10;;;;;;;16.92;100.00;95824.81;5023503;28;25032;-72
2022/06/05 05:47:07;;;;;;;11.95;7.53;;;;;;;17.00;100.00;95809.25;5029457;28;24797;-72
2022/06/05 05:49:34;;;;;;;9.23;7.95;;;;;;;17.04;100.00;95801.97;5029254;28;25019;-72
2022/06/05 05:52:01;;;;;;;7.55;6.75;;;;;;;16.77;100.00;95816.50;5029231;28;24436;-72
2022/06/05 05:54:28;;;;;;;7.72;6.88;;;;;;;16.56;100.00;95807.88;5028504;28;24806;-72
2022/06/05 05:56:55;;;;;;;8.20;7.00;;;;;;;16.68;100.00;95797.16;5029222;28;24478;-72
2022/06/05 05:59:21;;;;;;;7.47;6.60;;;;;;;16.57;100.00;95794.66;5028905;28;24432;-72
2022/06/05 06:01:48;;;;;;;7.03;6.38;;;;;;;16.44;100.00;95794.06;5029456;28;24447;-72
2022/06/05 06:04:15;;;;;;;6.60;6.00;;;;;;;16.67;100.00;95798.13;5028904;28;24439;-71
2022/06/05 06:06:43;;;;;;;7.35;6.25;;;;;;;16.50;100.00;95784.84;5033053;28;24467;-72
2022/06/05 06:09:12;;;;;;;7.35;6.50;;;;;;;16.30;100.00;95783.97;5030774;28;24431;-73
2022/06/05 06:11:39;;;;;;;6.90;6.25;;;;;;;16.16;100.00;95780.72;5032968;28;24435;-73
2022/06/05 06:14:05;;;;;;;8.80;6.63;;;;;;;16.01;100.00;95776.78;5033054;28;24443;-72
2022/06/05 06:16:32;;;;;;;7.45;6.47;;;;;;;15.95;100.00;95777.34;5032474;28;24897;-72
2022/06/05 06:19:00;;;;;;;8.07;6.95;;;;;;;16.00;100.00;95771.72;5033248;28;24882;-72
2022/06/05 06:21:26;;;;;;;7.10;5.73;;;;;;;16.07;100.00;95768.44;5033241;28;24531;-73
2022/06/05 06:23:53;;;;;;;7.60;5.90;;;;;;;16.08;100.00;95769.28;5032743;28;24432;-71
2022/06/05 06:26:21;;;;;;;7.55;6.20;;;;;;;16.05;100.00;95766.91;5032605;28;24463;-72
2022/06/05 06:28:48;;;;;;;8.10;7.10;;;;;;;15.89;100.00;95754.34;5032963;28;24443;-72
2022/06/05 06:31:16;;;;;;;8.25;7.45;;;;;;;15.77;100.00;95757.97;5032627;28;24435;-72
2022/06/05 06:33:45;;;;;;;10.40;8.50;;;;;;;15.73;100.00;95746.97;5032789;28;25034;-72
2022/06/05 06:36:14;;;;;;;7.35;6.65;;;;;;;15.65;100.00;95734.56;5032237;28;24517;-72
2022/06/05 06:38:41;;;;;;;7.60;6.80;;;;;;;15.70;100.00;95727.16;5032665;28;24538;-72
2022/06/05 06:41:09;;;;;;;9.93;7.63;;;;;;;15.65;100.00;95712.81;5032461;28;24531;-73
2022/06/05 06:43:36;;;;;;;8.95;8.05;;;;;;;15.63;100.00;95697.25;5032103;28;24497;-72
2022/06/05 06:46:04;;;;;;;21.25;9.27;;;;;;;15.52;100.00;95680.84;5031932;28;24719;-72
2022/06/05 06:48:31;;;;;;;8.50;7.60;;;;;;;15.53;100.00;95672.06;5032120;28;24440;-72
2022/06/05 06:50:59;;;;;;;10.43;6.40;;;;;;;15.61;100.00;95664.41;5031775;28;24875;-73
2022/06/05 06:53:26;;;;;;;6.75;5.93;;;;;;;15.67;100.00;95659.53;5032211;28;24467;-72
2022/06/05 06:55:53;;;;;;;8.40;4.93;;;;;;;15.66;100.00;95663.09;5032127;28;24440;-73
2022/06/05 06:58:19;;;;;;;7.28;5.93;;;;;;;16.01;100.00;95672.31;5033024;28;24447;-74
2022/06/05 07:00:47;;;;;;;6.22;5.63;;;;;;;16.03;100.00;95672.19;5032963;28;24439;-73
2022/06/05 07:03:14;;;;;;;6.55;5.30;;;;;;;15.93;100.00;95662.53;5032907;28;24451;-73
2022/06/05 07:05:41;;;;;;;5.70;5.07;;;;;;;15.93;100.00;95666.91;5032516;28;24466;-74
2022/06/05 07:08:09;;;;;;;6.50;5.82;;;;;;;15.89;100.00;95681.19;5032782;28;24439;-74
2022/06/05 07:10:36;;;;;;;5.40;4.93;;;;;;;15.89;100.00;95689.84;5032386;28;24435;-74
2022/06/05 07:13:03;;;;;;;5.13;4.63;;;;;;;15.83;100.00;95684.31;5032583;28;24535;-75
2022/06/05 07:15:34;;;;;;;6.32;5.65;;;;;;;15.92;100.00;95680.94;5032445;28;24440;-74
2022/06/05 07:18:02;;;;;;;7.22;6.53;;;;;;;15.88;100.00;95680.38;5032351;28;24427;-74
2022/06/05 07:20:31;;;;;;;7.93;6.22;;;;;;;15.93;100.00;95665.13;5032637;28;24945;-74
2022/06/05 07:22:58;;;;;;;8.32;7.32;;;;;;;15.94;100.00;95669.41;5032430;28;24805;-74
2022/06/05 07:25:24;;;;;;;6.82;6.22;;;;;;;15.99;100.00;95676.03;5032069;28;25187;-74
2022/06/05 07:27:51;;;;;;;6.95;6.25;;;;;;;15.99;100.00;95673.41;5032556;28;25011;-74
2022/06/05 07:30:17;;;;;;;6.60;5.50;;;;;;;16.05;100.00;95684.16;5032873;28;24431;-74
2022/06/05 07:32:44;;;;;;;7.85;5.30;;;;;;;16.10;100.00;95689.81;5032405;28;24440;-74
2022/06/05 07:35:12;;;;;;;6.95;6.35;;;;;;;16.28;100.00;95689.16;5032432;28;24436;-74
2022/06/05 07:37:39;;;;;;;7.25;6.60;;;;;;;16.20;100.00;95687.22;5032336;28;24522;-74
2022/06/05 07:40:07;;;;;;;7.55;6.82;;;;;;;16.21;100.00;95668.81;5032597;28;25020;-74
2022/06/05 07:42:36;;;;;;;7.07;6.22;;;;;;;16.33;100.00;95648.63;5032516;28;24469;-74
2022/06/05 07:45:02;;;;;;;8.00;6.85;;;;;;;16.58;100.00;95657.75;5032145;28;24546;-74
2022/06/05 07:47:29;;;;;;;7.57;6.80;;;;;;;16.55;100.00;95681.53;5032197;28;24415;-74
2022/06/05 07:49:55;;;;;;;8.68;7.15;;;;;;;16.55;100.00;95685.94;5032384;28;24430;-74
2022/06/05 07:55:08;;;;;;;7.07;6.38;;;;;;;16.82;100.00;95638.25;5031859;28;25138;-74
2022/06/05 07:57:35;;;;;;;6.38;5.78;;;;;;;16.94;100.00;95644.97;5032034;28;24432;-74
2022/06/05 08:00:01;;;;;;;7.93;6.68;;;;;;;16.89;100.00;95657.66;5032158;28;24478;-74
2022/06/05 08:02:29;;;;;;;9.00;6.47;;;;;;;17.03;100.00;95659.03;5031678;28;24511;-74
2022/06/05 08:04:56;;;;;;;7.53;6.20;;;;;;;17.01;100.00;95653.09;5031591;28;24423;-74
2022/06/05 08:07:26;;;;;;;6.78;6.18;;;;;;;17.11;100.00;95659.16;5031725;28;24774;-74
2022/06/05 08:09:53;;;;;;;6.28;5.68;;;;;;;17.20;100.00;95658.31;5031492;28;24945;-74
2022/06/05 08:12:21;;;;;;;7.90;6.32;;;;;;;17.20;100.00;95647.84;5031580;28;24436;-74
2022/06/05 08:14:49;;;;;;;6.55;5.75;;;;;;;17.25;100.00;95655.31;5031705;28;24825;-74
2022/06/05 08:17:18;;;;;;;6.93;5.57;;;;;;;17.49;100.00;95655.66;5031746;28;24502;-74
2022/06/05 08:19:46;;;;;;;6.20;5.57;;;;;;;17.66;100.00;95647.06;5031732;28;24447;-74
2022/06/05 08:22:15;;;;;;;6.95;6.22;;;;;;;17.84;100.00;95641.94;5031727;28;24494;-75
2022/06/05 08:24:43;;;;;;;6.22;5.63;;;;;;;17.85;100.00;95646.22;5031324;28;24431;-74
2022/06/05 08:27:11;;;;;;;8.27;6.00;;;;;;;17.85;100.00;95645.38;5031380;28;24861;-74
2022/06/05 08:29:39;;;;;;;7.15;5.85;;;;;;;17.88;100.00;95639.84;5030809;28;24416;-74
2022/06/05 08:32:06;;;;;;;6.72;5.90;;;;;;;17.89;100.00;95634.47;5031198;28;25035;-74
2022/06/05 08:34:33;;;;;;;7.32;6.07;;;;;;;18.13;100.00;95640.97;5031287;28;24451;-75
2022/06/05 08:42:42;;;;;;;11.15;6.70;;;;;;;19.02;100.00;95622.72;5030945;28;24979;-68
2022/06/05 08:45:12;;;;;;;8.75;6.75;;;;;;;19.44;100.00;95635.19;5030300;28;25008;-73
2022/06/05 08:47:47;;;;;;;9.60;7.05;;;;;;;19.92;100.00;95649.59;5031128;28;24463;-74
2022/06/05 08:50:29;;;;;;;9.00;7.40;;;;;;;20.02;100.00;95657.34;5030691;28;25005;-73
2022/06/05 08:52:59;;;;;;;9.18;7.88;;;;;;;20.05;100.00;95665.75;5030820;28;24432;-72
2022/06/05 08:55:32;;;;;;;11.73;9.52;;;;;;;20.21;100.00;95651.88;5030470;28;24511;-72
2022/06/05 08:58:04;;;;;;;11.75;9.43;;;;;;;20.72;100.00;95654.50;5030753;28;24438;-72
2022/06/05 09:00:37;;;;;;;13.77;9.95;;;;;;;20.48;100.00;95660.50;5030907;28;24854;-72
2022/06/05 09:03:12;;;;;;;10.32;9.15;;;;;;;20.50;100.00;95662.00;5030806;28;24462;-72
2022/06/05 09:05:43;;;;;;;11.63;7.40;;;;;;;20.38;100.00;95654.56;5028420;28;25006;-72
2022/06/05 09:08:13;;;;;;;12.88;7.95;;;;;;;20.28;100.00;95649.41;5030810;28;24432;-73
2022/06/05 09:10:45;;;;;;;10.90;7.50;;;;;;;20.26;100.00;95648.75;5030548;28;24443;-72
2022/06/05 09:13:15;;;;;;;7.45;6.40;;;;;;;20.14;100.00;95660.56;5030730;28;24443;-72
2022/06/05 09:15:46;;;;;;;7.57;5.28;;;;;;;20.40;100.00;95666.56;5030065;28;24528;-72
2022/06/05 09:18:16;;;;;;;15.70;6.85;;;;;;;20.74;100.00;95673.59;5029970;28;24439;-73
2022/06/05 09:20:49;;;;;;;7.65;5.72;;;;;;;20.80;100.00;95678.19;5030343;28;24427;-73
2022/06/05 09:23:22;;;;;;;10.30;6.43;;;;;;;21.14;100.00;95685.19;5030022;28;25191;-73
2022/06/05 09:25:57;;;;;;;10.70;6.75;;;;;;;21.13;100.00;95691.41;5028681;28;24506;-73
2022/06/05 09:28:41;;;;;;;10.80;7.28;;;;;;;20.79;100.00;95700.25;5030056;28;24439;-73
2022/06/05 09:31:45;;;;;;;13.47;6.80;;;;;;;20.72;100.00;95702.69;5030332;28;24443;-73
2022/06/05 09:34:14;;;;;;;9.70;7.10;;;;;;;20.56;100.00;95705.28;5015326;28;25091;-74
2022/06/05 09:36:44;;;;;;;9.02;6.38;;;;;;;20.42;100.00;95708.50;5029921;28;24439;-73
2022/06/05 09:39:24;;;;;;;8.82;6.40;;;;;;;20.58;100.00;95720.91;5030358;28;24438;-73
2022/06/05 09:42:00;;;;;;;8.47;5.70;;;;;;;20.43;100.00;95713.63;5034211;28;24455;-72
2022/06/05 09:44:44;;;;;;;7.75;5.28;;;;;;;20.27;100.00;95718.78;5033797;28;24498;-73
2022/06/05 09:47:17;;;;;;;8.25;5.20;;;;;;;20.30;100.00;95734.25;5033697;28;24973;-73
2022/06/05 09:49:48;;;;;;;7.53;5.03;;;;;;;20.59;100.00;95727.84;5033959;28;24436;-73
2022/06/05 09:52:17;;;;;;;7.93;5.37;;;;;;;20.23;100.00;95735.84;5018934;28;24434;-73
2022/06/05 09:54:47;;;;;;;7.65;5.68;;;;;;;20.41;100.00;95731.34;5033709;28;24443;-72
2022/06/05 10:00:29;;;;;;;6.80;4.85;;;;;;;20.31;100.00;95739.34;5018694;28;24933;-73
2022/06/05 10:03:00;;;;;;;7.97;5.10;;;;;;;20.49;100.00;95730.56;5033785;28;24992;-73
2022/06/05 10:05:29;;;;;;;6.00;4.35;;;;;;;20.92;100.00;95726.94;5029734;28;24531;-73
2022/06/05 10:08:00;;;;;;;6.10;5.03;;;;;;;20.77;100.00;95725.94;5030520;28;24829;-73
2022/06/05 10:10:34;;;;;;;5.10;4.40;;;;;;;20.85;100.00;95725.94;5033397;28;24517;-73
2022/06/05 10:13:11;;;;;;;8.07;4.60;;;;;;;20.82;100.00;95717.53;5031622;28;24438;-73
2022/06/05 10:15:44;;;;;;;5.15;4.47;;;;;;;20.46;100.00;95720.34;5033130;28;24523;-73
2022/06/05 10:18:16;;;;;;;11.40;4.68;;;;;;;20.57;100.00;95703.47;5033180;28;24435;-73
2022/06/05 10:20:56;;;;;;;5.10;4.10;;;;;;;20.79;100.00;95694.97;5033507;28;24428;-73
2022/06/05 10:23:44;;;;;;;5.83;4.00;;;;;;;21.29;100.00;95688.81;5033850;28;24435;-73
2022/06/05 10:26:28;;;;;;;4.95;3.88;;;;;;;21.68;100.00;95681.06;5032503;28;24456;-73
2022/06/05 10:29:18;;;;;;;5.77;4.23;;;;;;;21.52;100.00;95691.63;5026959;28;24977;-72
2022/06/05 10:32:05;;;;;;;5.20;4.32;;;;;;;21.30;100.00;95693.09;5032572;28;24435;-73
2022/06/05 10:34:42;;;;;;;4.95;3.97;;;;;;;21.50;100.00;95694.41;5013463;28;24516;-74
2022/06/05 10:37:20;;;;;;;5.40;3.92;;;;;;;21.64;100.00;95700.84;5022939;28;24436;-73
2022/06/05 10:40:03;;;;;;;6.10;3.70;;;;;;;21.63;100.00;95693.94;5028477;28;24439;-72
2022/06/05 10:42:35;;;;;;;12.48;3.63;;;;;;;21.53;100.00;95697.72;5017391;28;24447;-74
2022/06/05 10:45:16;;;;;;;5.40;3.85;;;;;;;21.63;100.00;95687.84;5032761;28;24435;-72
2022/06/05 10:47:53;;;;;;;7.82;3.63;;;;;;;21.46;100.00;95679.94;5032601;28;24482;-73
2022/06/05 10:50:24;;;;;;;4.45;3.28;;;;;;;21.32;100.00;95674.47;5032871;28;24849;-73
2022/06/05 10:52:57;;;;;;;5.43;3.23;;;;;;;21.61;100.00;95679.25;5031836;28;24816;-73
2022/06/05 10:55:43;;;;;;;4.57;2.95;;;;;;;21.58;100.00;95671.69;5032633;28;24834;-74
2022/06/05 10:58:19;;;;;;;4.70;3.20;;;;;;;21.63;100.00;95691.28;5032852;28;24976;-73
2022/06/05 11:01:02;;;;;;;5.30;3.08;;;;;;;21.57;100.00;95686.69;5033021;28;24423;-74
2022/06/05 11:03:38;;;;;;;4.43;3.03;;;;;;;21.63;100.00;95693.09;5033015;28;24786;-74
2022/06/05 11:06:18;;;;;;;3.50;2.53;;;;;;;21.28;100.00;95689.78;5032277;28;24510;-74
2022/06/05 11:08:58;;;;;;;7.00;2.78;;;;;;;21.39;100.00;95701.84;5033048;28;24427;-74
2022/06/05 11:14:21;;;;;;;9.30;2.85;;;;;;;21.43;100.00;95687.34;5032798;28;24968;-74
2022/06/05 11:16:55;;;;;;;4.13;2.85;;;;;;;21.67;100.00;95691.78;5032487;28;24427;-74
2022/06/05 11:19:32;;;;;;;8.63;3.20;;;;;;;21.81;100.00;95688.47;5032743;28;24790;-74
2022/06/05 11:22:02;;;;;;;5.30;2.67;;;;;;;21.91;100.00;95696.19;5032672;28;24786;-74
2022/06/05 11:24:33;;;;;;;4.75;3.00;;;;;;;21.86;100.00;95696.69;5032176;28;24432;-74
2022/06/05 11:27:08;;;;;;;10.32;2.95;;;;;;;22.04;100.00;95685.13;5032273;28;24536;-73
2022/06/05 11:29:43;;;;;;;5.10;2.25;;;;;;;21.96;100.00;95676.25;5032844;28;24420;-73
2022/06/05 11:32:40;;;;;;;7.80;2.53;;;;;;;22.14;100.00;95686.63;5032329;28;24949;-74
2022/06/05 11:35:16;;;;;;;5.40;1.80;;;;;;;22.50;100.00;95675.56;5031951;28;24424;-73
2022/06/05 11:37:53;;;;;;;4.32;2.25;;;;;;;22.83;100.00;95670.13;5032174;28;24478;-73
2022/06/05 11:40:45;;;;;;;3.78;2.58;;;;;;;22.94;100.00;95667.09;5032582;28;24432;-73
2022/06/05 11:43:30;;;;;;;4.72;2.45;;;;;;;23.21;100.00;95657.81;5032127;28;24420;-73
2022/06/05 11:46:05;;;;;;;5.05;2.45;;;;;;;23.07;100.00;95661.25;5031461;28;25030;-73
2022/06/05 11:48:44;;;;;;;2.85;1.90;;;;;;;23.32;98.67;95657.41;5031997;28;24988;-74
2022/06/05 11:51:20;;;;;;;5.78;2.40;;;;;;;23.36;100.00;95653.44;5032121;28;24474;-74
2022/06/05 11:53:55;;;;;;;6.55;2.08;;;;;;;23.17;97.62;95651.25;5031977;28;24526;-73
2022/06/05 11:56:48;;;;;;;4.38;2.05;;;;;;;23.20;100.00;95645.63;5031532;28;24946;-73
2022/06/05 11:59:28;;;;;;;7.65;2.20;;;;;;;23.39;98.20;95653.03;5031729;28;24821;-73
2022/06/05 12:01:58;;;;;;;3.17;2.22;;;;;;;23.42;100.00;95657.97;5031766;28;24964;-74